Aeroporto :
LOGIN :

Iscrizione | Disclaimer

   EN    FR    IT 

 










Sommario :    VFR   VFR Marginale   IFR   IFR Intensivo   IFR Molto Intensivo
Visibilità : 
Base nubi : 
>= 8 km
>= 3000ft
5 / 8 km
1000 / 3000 ft
1500m / 5 km
500 / 1000 ft
800 / 1500m
200 / 500 ft
< 800m
< 200 ft
Simboli :   Temporali  Nebbia  Neve Forte  Precipitazioni Forti  Vento > 20 kt
SIGMETs :   Varie  Temporali  Ghiacco  Turbolenza  Onda orograficha  Ceneri Vulcaniche






- Altitudine del aeroporto : 26 ft
- Codice IATA : BIA


LFKB - Bastia

ULTIMO METAR :
  • 230800Z AUTO VRB04KT CAVOK 31/16 Q1015 NOSIG

METARs OBSOLETI :
  • 230730Z AUTO 22004KT 190V290 CAVOK 30/16 Q1015 NOSIG
  • 230700Z AUTO VRB02KT CAVOK 28/19 Q1015 NOSIG
  • 230630Z AUTO VRB03KT CAVOK 27/17 Q1014 NOSIG
  • 230600Z AUTO VRB03KT CAVOK 26/17 Q1014 NOSIG
  • 230530Z AUTO VRB02KT CAVOK 25/16 Q1014 NOSIG
  • 230500Z AUTO VRB03KT CAVOK 24/16 Q1014 NOSIG
  • 230430Z AUTO 23006KT CAVOK 24/16 Q1014 NOSIG
  • 230400Z AUTO 23004KT 210V270 CAVOK 24/16 Q1014 NOSIG
  • 230330Z AUTO 22006KT CAVOK 24/16 Q1014 NOSIG

TAF TAF LFKB
Valido dal 23 a 03 ore il 24 a 03 ore UTC


230200Z 2303/2403 VRB02KT CAVOK TX32/2314Z TN22/2304Z
BECMG 2308/2310 09008KT
ATIS : +33 4 95 59 19 40



MetMap, La meteo Aeronautica in un colpo d'occhio ! - Copyright ORBIFLY Dicembre 2007 - Disclaimer

ORBIFLY MET'MAP TEAM :

Programmazione e sviluppo : Alexandra Zaïnal
Concezione : Baudouin d'Aumeries
Supporto tecnico e logistico : Manuel Goepfert
Aiuto : Marc-Olivier Méhu
Aiuto per la traduzione : Arnaldo La Scala




FONTI E CREDITI :

   NOAA